sensor_id;sensor_type;location;lat;lon;timestamp;pressure;altitude;pressure_sealevel;temperature
40199;BMP280;25906;43.536;26.068;2023-03-01T00:01:51;99494.16;;;4.69
40199;BMP280;25906;43.536;26.068;2023-03-01T00:04:37;99492.75;;;4.86
40199;BMP280;25906;43.536;26.068;2023-03-01T00:07:22;99490.22;;;4.70
40199;BMP280;25906;43.536;26.068;2023-03-01T00:10:08;99483.22;;;4.67
40199;BMP280;25906;43.536;26.068;2023-03-01T00:12:54;99493.22;;;4.66
40199;BMP280;25906;43.536;26.068;2023-03-01T00:15:41;99482.38;;;4.77
40199;BMP280;25906;43.536;26.068;2023-03-01T00:18:26;99484.78;;;4.80
40199;BMP280;25906;43.536;26.068;2023-03-01T00:21:12;99485.25;;;5.03
40199;BMP280;25906;43.536;26.068;2023-03-01T00:23:58;99481.63;;;4.76
40199;BMP280;25906;43.536;26.068;2023-03-01T00:26:43;99481.75;;;4.66
40199;BMP280;25906;43.536;26.068;2023-03-01T00:29:29;99485.41;;;4.68
40199;BMP280;25906;43.536;26.068;2023-03-01T00:32:14;99477.31;;;7.25
40199;BMP280;25906;43.536;26.068;2023-03-01T00:34:59;99476.97;;;7.62
40199;BMP280;25906;43.536;26.068;2023-03-01T00:37:45;99470.69;;;7.80
40199;BMP280;25906;43.536;26.068;2023-03-01T00:40:33;99474.03;;;7.52
40199;BMP280;25906;43.536;26.068;2023-03-01T00:43:19;99466.25;;;7.49
40199;BMP280;25906;43.536;26.068;2023-03-01T00:46:07;99465.56;;;7.48
40199;BMP280;25906;43.536;26.068;2023-03-01T00:48:54;99463.97;;;7.20
40199;BMP280;25906;43.536;26.068;2023-03-01T00:51:39;99467.09;;;7.44
40199;BMP280;25906;43.536;26.068;2023-03-01T00:54:26;99458.19;;;7.16
40199;BMP280;25906;43.536;26.068;2023-03-01T00:57:11;99461.28;;;6.61
40199;BMP280;25906;43.536;26.068;2023-03-01T00:59:57;99458.78;;;7.22
40199;BMP280;25906;43.536;26.068;2023-03-01T01:02:43;99457.75;;;7.25
40199;BMP280;25906;43.536;26.068;2023-03-01T01:05:28;99450.88;;;7.03
40199;BMP280;25906;43.536;26.068;2023-03-01T01:08:13;99451.66;;;6.78
40199;BMP280;25906;43.536;26.068;2023-03-01T01:10:59;99445.13;;;6.74
40199;BMP280;25906;43.536;26.068;2023-03-01T01:13:46;99442.53;;;6.81
40199;BMP280;25906;43.536;26.068;2023-03-01T01:16:31;99434.06;;;6.64
40199;BMP280;25906;43.536;26.068;2023-03-01T01:19:17;99436.34;;;6.73
40199;BMP280;25906;43.536;26.068;2023-03-01T01:22:02;99433.06;;;7.00
40199;BMP280;25906;43.536;26.068;2023-03-01T01:24:48;99438.81;;;6.58
40199;BMP280;25906;43.536;26.068;2023-03-01T01:27:33;99431.06;;;6.81
40199;BMP280;25906;43.536;26.068;2023-03-01T01:30:19;99432.44;;;7.28
40199;BMP280;25906;43.536;26.068;2023-03-01T01:33:04;99426.28;;;6.87
40199;BMP280;25906;43.536;26.068;2023-03-01T01:35:49;99421.66;;;6.61
40199;BMP280;25906;43.536;26.068;2023-03-01T01:38:36;99424.97;;;6.41
40199;BMP280;25906;43.536;26.068;2023-03-01T01:41:23;99408.09;;;6.54
40199;BMP280;25906;43.536;26.068;2023-03-01T01:47:10;99397.34;;;6.54
40199;BMP280;25906;43.536;26.068;2023-03-01T01:49:58;99392.09;;;6.61
40199;BMP280;25906;43.536;26.068;2023-03-01T01:52:44;99382.78;;;6.49
40199;BMP280;25906;43.536;26.068;2023-03-01T01:55:31;99384.00;;;6.36
40199;BMP280;25906;43.536;26.068;2023-03-01T01:58:18;99379.88;;;6.09
40199;BMP280;25906;43.536;26.068;2023-03-01T02:01:05;99376.16;;;6.38
40199;BMP280;25906;43.536;26.068;2023-03-01T02:03:51;99365.19;;;6.36
40199;BMP280;25906;43.536;26.068;2023-03-01T02:06:41;99360.19;;;6.65
40199;BMP280;25906;43.536;26.068;2023-03-01T02:09:27;99369.25;;;6.29
40199;BMP280;25906;43.536;26.068;2023-03-01T02:12:17;99361.88;;;6.30
40199;BMP280;25906;43.536;26.068;2023-03-01T02:15:04;99366.25;;;6.33
40199;BMP280;25906;43.536;26.068;2023-03-01T02:17:50;99365.81;;;6.03
40199;BMP280;25906;43.536;26.068;2023-03-01T02:23:31;99375.94;;;6.36
40199;BMP280;25906;43.536;26.068;2023-03-01T02:26:21;99382.16;;;6.90
40199;BMP280;25906;43.536;26.068;2023-03-01T02:29:09;99375.00;;;6.46
40199;BMP280;25906;43.536;26.068;2023-03-01T02:31:57;99384.91;;;6.64
40199;BMP280;25906;43.536;26.068;2023-03-01T02:34:43;99377.03;;;6.66
40199;BMP280;25906;43.536;26.068;2023-03-01T02:37:29;99387.66;;;6.84
40199;BMP280;25906;43.536;26.068;2023-03-01T02:40:17;99388.84;;;6.76
40199;BMP280;25906;43.536;26.068;2023-03-01T02:43:06;99391.66;;;6.44
40199;BMP280;25906;43.536;26.068;2023-03-01T02:45:57;99386.19;;;6.50
40199;BMP280;25906;43.536;26.068;2023-03-01T02:48:49;99385.53;;;6.44
40199;BMP280;25906;43.536;26.068;2023-03-01T02:54:43;99385.50;;;6.83
40199;BMP280;25906;43.536;26.068;2023-03-01T02:57:34;99394.78;;;6.61
40199;BMP280;25906;43.536;26.068;2023-03-01T03:00:26;99394.66;;;7.00
40199;BMP280;25906;43.536;26.068;2023-03-01T03:03:15;99395.06;;;7.04
40199;BMP280;25906;43.536;26.068;2023-03-01T03:06:01;99391.13;;;7.05
40199;BMP280;25906;43.536;26.068;2023-03-01T03:08:47;99389.38;;;7.07
40199;BMP280;25906;43.536;26.068;2023-03-01T03:11:32;99385.69;;;7.18
40199;BMP280;25906;43.536;26.068;2023-03-01T03:14:17;99386.03;;;7.35
40199;BMP280;25906;43.536;26.068;2023-03-01T03:17:03;99378.41;;;7.05
40199;BMP280;25906;43.536;26.068;2023-03-01T03:19:51;99372.50;;;7.27
40199;BMP280;25906;43.536;26.068;2023-03-01T03:22:40;99378.22;;;7.44
40199;BMP280;25906;43.536;26.068;2023-03-01T03:25:28;99365.56;;;7.32
40199;BMP280;25906;43.536;26.068;2023-03-01T03:28:13;99374.91;;;7.18
40199;BMP280;25906;43.536;26.068;2023-03-01T03:31:01;99364.75;;;6.91
40199;BMP280;25906;43.536;26.068;2023-03-01T03:33:49;99361.88;;;7.09
40199;BMP280;25906;43.536;26.068;2023-03-01T03:36:35;99357.81;;;6.95
40199;BMP280;25906;43.536;26.068;2023-03-01T03:39:20;99367.81;;;7.28
40199;BMP280;25906;43.536;26.068;2023-03-01T03:42:05;99374.53;;;7.54
40199;BMP280;25906;43.536;26.068;2023-03-01T03:44:51;99368.63;;;7.36
40199;BMP280;25906;43.536;26.068;2023-03-01T03:47:36;99365.66;;;7.06
40199;BMP280;25906;43.536;26.068;2023-03-01T03:50:22;99373.38;;;7.43
40199;BMP280;25906;43.536;26.068;2023-03-01T03:53:11;99382.22;;;7.50
40199;BMP280;25906;43.536;26.068;2023-03-01T03:55:57;99372.59;;;7.62
40199;BMP280;25906;43.536;26.068;2023-03-01T03:58:43;99376.34;;;7.80
40199;BMP280;25906;43.536;26.068;2023-03-01T04:01:28;99380.91;;;7.92
40199;BMP280;25906;43.536;26.068;2023-03-01T04:04:13;99380.34;;;7.86
40199;BMP280;25906;43.536;26.068;2023-03-01T04:07:02;99386.81;;;8.11
40199;BMP280;25906;43.536;26.068;2023-03-01T04:09:48;99392.22;;;7.91
40199;BMP280;25906;43.536;26.068;2023-03-01T04:12:34;99396.09;;;8.02
40199;BMP280;25906;43.536;26.068;2023-03-01T04:15:19;99391.63;;;8.12
40199;BMP280;25906;43.536;26.068;2023-03-01T04:18:06;99396.06;;;8.30
40199;BMP280;25906;43.536;26.068;2023-03-01T04:20:52;99396.22;;;8.25
40199;BMP280;25906;43.536;26.068;2023-03-01T04:23:40;99385.69;;;8.06
40199;BMP280;25906;43.536;26.068;2023-03-01T04:26:26;99386.63;;;8.16
40199;BMP280;25906;43.536;26.068;2023-03-01T04:29:12;99387.38;;;8.17
40199;BMP280;25906;43.536;26.068;2023-03-01T04:31:57;99387.66;;;8.41
40199;BMP280;25906;43.536;26.068;2023-03-01T04:34:44;99384.78;;;8.11
40199;BMP280;25906;43.536;26.068;2023-03-01T04:37:29;99391.22;;;8.01
40199;BMP280;25906;43.536;26.068;2023-03-01T04:40:15;99395.97;;;8.43
40199;BMP280;25906;43.536;26.068;2023-03-01T04:43:02;99390.75;;;8.10
40199;BMP280;25906;43.536;26.068;2023-03-01T04:45:48;99399.47;;;8.58
40199;BMP280;25906;43.536;26.068;2023-03-01T04:48:34;99400.22;;;8.03
40199;BMP280;25906;43.536;26.068;2023-03-01T04:51:19;99402.38;;;8.05
40199;BMP280;25906;43.536;26.068;2023-03-01T04:54:05;99399.69;;;8.05
40199;BMP280;25906;43.536;26.068;2023-03-01T04:56:54;99393.03;;;8.34
40199;BMP280;25906;43.536;26.068;2023-03-01T04:59:39;99403.28;;;8.35
40199;BMP280;25906;43.536;26.068;2023-03-01T05:02:25;99396.81;;;8.73
40199;BMP280;25906;43.536;26.068;2023-03-01T05:05:10;99405.00;;;8.60
40199;BMP280;25906;43.536;26.068;2023-03-01T05:07:58;99397.50;;;8.31
40199;BMP280;25906;43.536;26.068;2023-03-01T05:10:45;99399.59;;;8.53
40199;BMP280;25906;43.536;26.068;2023-03-01T05:13:31;99393.81;;;8.14
40199;BMP280;25906;43.536;26.068;2023-03-01T05:16:17;99389.50;;;8.11
40199;BMP280;25906;43.536;26.068;2023-03-01T05:19:03;99385.25;;;8.65
40199;BMP280;25906;43.536;26.068;2023-03-01T05:21:57;99392.41;;;8.20
40199;BMP280;25906;43.536;26.068;2023-03-01T05:24:51;99392.19;;;8.46
40199;BMP280;25906;43.536;26.068;2023-03-01T05:27:37;99389.56;;;8.26
40199;BMP280;25906;43.536;26.068;2023-03-01T05:30:23;99399.53;;;8.38
40199;BMP280;25906;43.536;26.068;2023-03-01T05:33:08;99394.34;;;8.48
40199;BMP280;25906;43.536;26.068;2023-03-01T05:36:00;99390.94;;;8.47
40199;BMP280;25906;43.536;26.068;2023-03-01T05:38:45;99402.38;;;8.05
40199;BMP280;25906;43.536;26.068;2023-03-01T05:41:31;99397.06;;;8.20
40199;BMP280;25906;43.536;26.068;2023-03-01T05:44:16;99394.00;;;8.16
40199;BMP280;25906;43.536;26.068;2023-03-01T05:47:01;99393.84;;;8.21
40199;BMP280;25906;43.536;26.068;2023-03-01T05:49:47;99393.63;;;8.47
40199;BMP280;25906;43.536;26.068;2023-03-01T05:52:32;99396.34;;;8.54
40199;BMP280;25906;43.536;26.068;2023-03-01T05:55:19;99411.13;;;8.61
40199;BMP280;25906;43.536;26.068;2023-03-01T05:58:09;99401.38;;;9.00
40199;BMP280;25906;43.536;26.068;2023-03-01T06:00:55;99392.31;;;8.91
40199;BMP280;25906;43.536;26.068;2023-03-01T06:03:41;99398.88;;;9.32
40199;BMP280;25906;43.536;26.068;2023-03-01T06:06:26;99403.16;;;9.05
40199;BMP280;25906;43.536;26.068;2023-03-01T06:09:12;99399.59;;;9.10
40199;BMP280;25906;43.536;26.068;2023-03-01T06:11:57;99395.59;;;8.97
40199;BMP280;25906;43.536;26.068;2023-03-01T06:14:43;99391.81;;;9.14
40199;BMP280;25906;43.536;26.068;2023-03-01T06:17:34;99392.78;;;9.32
40199;BMP280;25906;43.536;26.068;2023-03-01T06:20:25;99394.94;;;9.41
40199;BMP280;25906;43.536;26.068;2023-03-01T06:23:10;99384.41;;;8.93
40199;BMP280;25906;43.536;26.068;2023-03-01T06:25:56;99380.88;;;9.20
40199;BMP280;25906;43.536;26.068;2023-03-01T06:28:41;99387.81;;;8.86
40199;BMP280;25906;43.536;26.068;2023-03-01T06:31:27;99392.50;;;8.85
40199;BMP280;25906;43.536;26.068;2023-03-01T06:34:12;99396.16;;;8.52
40199;BMP280;25906;43.536;26.068;2023-03-01T06:36:58;99387.38;;;9.32
40199;BMP280;25906;43.536;26.068;2023-03-01T06:39:44;99385.91;;;9.23
40199;BMP280;25906;43.536;26.068;2023-03-01T06:42:29;99397.25;;;9.22
40199;BMP280;25906;43.536;26.068;2023-03-01T06:45:15;99391.50;;;9.55
40199;BMP280;25906;43.536;26.068;2023-03-01T06:48:01;99393.31;;;9.67
40199;BMP280;25906;43.536;26.068;2023-03-01T06:50:46;99401.06;;;9.49
40199;BMP280;25906;43.536;26.068;2023-03-01T06:53:32;99399.59;;;9.18
40199;BMP280;25906;43.536;26.068;2023-03-01T06:56:17;99406.28;;;9.32
40199;BMP280;25906;43.536;26.068;2023-03-01T06:59:02;99407.03;;;9.54
40199;BMP280;25906;43.536;26.068;2023-03-01T07:01:48;99400.16;;;9.39
40199;BMP280;25906;43.536;26.068;2023-03-01T07:04:33;99397.78;;;9.57
40199;BMP280;25906;43.536;26.068;2023-03-01T07:07:19;99400.16;;;9.68
40199;BMP280;25906;43.536;26.068;2023-03-01T07:10:05;99411.50;;;9.67
40199;BMP280;25906;43.536;26.068;2023-03-01T07:12:54;99409.53;;;9.60
40199;BMP280;25906;43.536;26.068;2023-03-01T07:15:40;99408.22;;;10.05
40199;BMP280;25906;43.536;26.068;2023-03-01T07:18:26;99413.97;;;10.09
40199;BMP280;25906;43.536;26.068;2023-03-01T07:21:13;99412.75;;;9.81
40199;BMP280;25906;43.536;26.068;2023-03-01T07:23:58;99415.97;;;10.01
40199;BMP280;25906;43.536;26.068;2023-03-01T07:26:43;99420.94;;;10.35
40199;BMP280;25906;43.536;26.068;2023-03-01T07:29:29;99423.13;;;10.29
40199;BMP280;25906;43.536;26.068;2023-03-01T07:32:15;99426.31;;;10.42
40199;BMP280;25906;43.536;26.068;2023-03-01T07:35:00;99425.59;;;10.88
40199;BMP280;25906;43.536;26.068;2023-03-01T07:37:46;99434.00;;;10.68
40199;BMP280;25906;43.536;26.068;2023-03-01T07:40:31;99433.91;;;10.36
40199;BMP280;25906;43.536;26.068;2023-03-01T07:43:17;99429.09;;;10.66
40199;BMP280;25906;43.536;26.068;2023-03-01T07:46:03;99436.22;;;10.47
40199;BMP280;25906;43.536;26.068;2023-03-01T07:48:48;99438.31;;;10.71
40199;BMP280;25906;43.536;26.068;2023-03-01T07:51:34;99439.56;;;10.70
40199;BMP280;25906;43.536;26.068;2023-03-01T07:54:19;99431.94;;;10.76
40199;BMP280;25906;43.536;26.068;2023-03-01T07:57:04;99430.56;;;10.99
40199;BMP280;25906;43.536;26.068;2023-03-01T07:59:50;99430.03;;;11.25
40199;BMP280;25906;43.536;26.068;2023-03-01T08:02:35;99432.53;;;10.98
40199;BMP280;25906;43.536;26.068;2023-03-01T08:05:21;99432.41;;;11.21
40199;BMP280;25906;43.536;26.068;2023-03-01T08:08:07;99430.38;;;10.97
40199;BMP280;25906;43.536;26.068;2023-03-01T08:10:56;99445.19;;;11.52
40199;BMP280;25906;43.536;26.068;2023-03-01T08:13:42;99432.91;;;11.02
40199;BMP280;25906;43.536;26.068;2023-03-01T08:16:28;99428.88;;;11.11
40199;BMP280;25906;43.536;26.068;2023-03-01T08:19:13;99429.63;;;11.04
40199;BMP280;25906;43.536;26.068;2023-03-01T08:21:59;99424.78;;;11.27
40199;BMP280;25906;43.536;26.068;2023-03-01T08:24:45;99426.88;;;10.80
40199;BMP280;25906;43.536;26.068;2023-03-01T08:27:30;99427.06;;;10.35
40199;BMP280;25906;43.536;26.068;2023-03-01T08:30:15;99426.75;;;11.02
40199;BMP280;25906;43.536;26.068;2023-03-01T08:33:01;99422.81;;;10.96
40199;BMP280;25906;43.536;26.068;2023-03-01T08:35:46;99425.75;;;10.90
40199;BMP280;25906;43.536;26.068;2023-03-01T08:38:33;99416.06;;;11.04
40199;BMP280;25906;43.536;26.068;2023-03-01T08:41:19;99418.84;;;10.97
40199;BMP280;25906;43.536;26.068;2023-03-01T08:44:05;99418.19;;;11.13
40199;BMP280;25906;43.536;26.068;2023-03-01T08:46:51;99409.66;;;11.16
40199;BMP280;25906;43.536;26.068;2023-03-01T08:49:38;99402.38;;;11.02
40199;BMP280;25906;43.536;26.068;2023-03-01T08:52:23;99405.44;;;10.98
40199;BMP280;25906;43.536;26.068;2023-03-01T08:55:09;99410.59;;;10.87
40199;BMP280;25906;43.536;26.068;2023-03-01T08:57:55;99410.94;;;11.15
40199;BMP280;25906;43.536;26.068;2023-03-01T09:00:40;99411.44;;;11.45
40199;BMP280;25906;43.536;26.068;2023-03-01T09:03:26;99408.78;;;11.38
40199;BMP280;25906;43.536;26.068;2023-03-01T09:06:13;99409.00;;;11.74
40199;BMP280;25906;43.536;26.068;2023-03-01T09:08:59;99402.09;;;11.80
40199;BMP280;25906;43.536;26.068;2023-03-01T09:11:46;99408.22;;;11.81
40199;BMP280;25906;43.536;26.068;2023-03-01T09:14:32;99405.44;;;11.88
40199;BMP280;25906;43.536;26.068;2023-03-01T09:17:17;99403.34;;;11.79
40199;BMP280;25906;43.536;26.068;2023-03-01T09:20:03;99414.84;;;12.21
40199;BMP280;25906;43.536;26.068;2023-03-01T09:22:50;99403.03;;;12.09
40199;BMP280;25906;43.536;26.068;2023-03-01T09:25:36;99409.81;;;12.60
40199;BMP280;25906;43.536;26.068;2023-03-01T09:28:21;99404.06;;;12.13
40199;BMP280;25906;43.536;26.068;2023-03-01T09:31:08;99396.06;;;12.32
40199;BMP280;25906;43.536;26.068;2023-03-01T09:33:53;99404.88;;;12.23
40199;BMP280;25906;43.536;26.068;2023-03-01T09:36:39;99409.59;;;12.49
40199;BMP280;25906;43.536;26.068;2023-03-01T09:39:25;99394.25;;;12.01
40199;BMP280;25906;43.536;26.068;2023-03-01T09:42:11;99399.25;;;12.38
40199;BMP280;25906;43.536;26.068;2023-03-01T09:45:05;99404.22;;;12.15
40199;BMP280;25906;43.536;26.068;2023-03-01T09:47:55;99400.41;;;12.61
40199;BMP280;25906;43.536;26.068;2023-03-01T09:50:42;99395.53;;;13.31
40199;BMP280;25906;43.536;26.068;2023-03-01T09:53:32;99396.59;;;13.09
40199;BMP280;25906;43.536;26.068;2023-03-01T09:56:33;99409.53;;;12.92
40199;BMP280;25906;43.536;26.068;2023-03-01T10:02:38;99399.84;;;12.63
40199;BMP280;25906;43.536;26.068;2023-03-01T10:08:42;99390.19;;;13.14
40199;BMP280;25906;43.536;26.068;2023-03-01T10:11:31;99389.53;;;12.87
40199;BMP280;25906;43.536;26.068;2023-03-01T10:17:34;99394.50;;;12.55
40199;BMP280;25906;43.536;26.068;2023-03-01T10:20:23;99383.72;;;12.74
40199;BMP280;25906;43.536;26.068;2023-03-01T10:23:10;99367.75;;;12.52
40199;BMP280;25906;43.536;26.068;2023-03-01T10:31:47;99369.56;;;13.02
40199;BMP280;25906;43.536;26.068;2023-03-01T10:34:35;99362.19;;;12.85
40199;BMP280;25906;43.536;26.068;2023-03-01T10:37:21;99361.25;;;13.09
40199;BMP280;25906;43.536;26.068;2023-03-01T10:40:09;99357.63;;;13.80
40199;BMP280;25906;43.536;26.068;2023-03-01T10:42:58;99353.34;;;13.58
40199;BMP280;25906;43.536;26.068;2023-03-01T10:45:45;99332.53;;;13.63
40199;BMP280;25906;43.536;26.068;2023-03-01T10:48:30;99342.44;;;13.68
40199;BMP280;25906;43.536;26.068;2023-03-01T10:51:17;99335.69;;;13.31
40199;BMP280;25906;43.536;26.068;2023-03-01T10:54:06;99335.72;;;13.59
40199;BMP280;25906;43.536;26.068;2023-03-01T10:57:01;99326.56;;;13.74
40199;BMP280;25906;43.536;26.068;2023-03-01T11:09:22;99309.88;;;12.59
40199;BMP280;25906;43.536;26.068;2023-03-01T11:12:14;99306.94;;;12.74
40199;BMP280;25906;43.536;26.068;2023-03-01T11:15:00;99301.22;;;13.43
40199;BMP280;25906;43.536;26.068;2023-03-01T11:17:47;99305.63;;;13.85
40199;BMP280;25906;43.536;26.068;2023-03-01T11:20:35;99304.81;;;13.45
40199;BMP280;25906;43.536;26.068;2023-03-01T11:23:22;99296.91;;;13.68
40199;BMP280;25906;43.536;26.068;2023-03-01T11:26:08;99304.00;;;14.11
40199;BMP280;25906;43.536;26.068;2023-03-01T11:28:57;99297.41;;;5.91
40199;BMP280;25906;43.536;26.068;2023-03-01T11:31:45;99291.38;;;5.59
40199;BMP280;25906;43.536;26.068;2023-03-01T11:34:40;99278.91;;;5.49
40199;BMP280;25906;43.536;26.068;2023-03-01T11:37:46;99274.00;;;5.34
40199;BMP280;25906;43.536;26.068;2023-03-01T11:43:49;99279.69;;;5.57
40199;BMP280;25906;43.536;26.068;2023-03-01T12:00:10;99268.22;;;5.43
40199;BMP280;25906;43.536;26.068;2023-03-01T12:03:38;99266.06;;;5.42
40199;BMP280;25906;43.536;26.068;2023-03-01T12:13:19;99259.50;;;6.94
40199;BMP280;25906;43.536;26.068;2023-03-01T12:19:27;99257.13;;;7.39
40199;BMP280;25906;43.536;26.068;2023-03-01T12:22:37;99261.41;;;7.62
40199;BMP280;25906;43.536;26.068;2023-03-01T12:25:34;99256.78;;;7.70
40199;BMP280;25906;43.536;26.068;2023-03-01T12:31:32;99248.34;;;7.66
40199;BMP280;25906;43.536;26.068;2023-03-01T12:37:21;99247.44;;;7.71
40199;BMP280;25906;43.536;26.068;2023-03-01T12:40:26;99251.16;;;7.96
40199;BMP280;25906;43.536;26.068;2023-03-01T12:49:36;99242.66;;;8.27
40199;BMP280;25906;43.536;26.068;2023-03-01T12:52:33;99240.75;;;8.42
40199;BMP280;25906;43.536;26.068;2023-03-01T12:55:36;99246.78;;;8.20
40199;BMP280;25906;43.536;26.068;2023-03-01T12:58:46;99243.75;;;8.31
40199;BMP280;25906;43.536;26.068;2023-03-01T13:07:55;99228.19;;;7.95
40199;BMP280;25906;43.536;26.068;2023-03-01T13:10:58;99229.19;;;8.34
40199;BMP280;25906;43.536;26.068;2023-03-01T13:13:45;99224.19;;;8.38
40199;BMP280;25906;43.536;26.068;2023-03-01T13:19:27;99235.38;;;8.72
40199;BMP280;25906;43.536;26.068;2023-03-01T13:22:32;99245.41;;;8.42
40199;BMP280;25906;43.536;26.068;2023-03-01T13:25:19;99233.13;;;8.26
40199;BMP280;25906;43.536;26.068;2023-03-01T13:34:47;99223.53;;;7.95
40199;BMP280;25906;43.536;26.068;2023-03-01T13:37:37;99224.78;;;7.59
40199;BMP280;25906;43.536;26.068;2023-03-01T13:43:30;99225.50;;;7.59
40199;BMP280;25906;43.536;26.068;2023-03-01T13:46:21;99224.88;;;7.46
40199;BMP280;25906;43.536;26.068;2023-03-01T13:49:13;99230.00;;;7.64
40199;BMP280;25906;43.536;26.068;2023-03-01T13:51:59;99227.31;;;7.64
40199;BMP280;25906;43.536;26.068;2023-03-01T13:54:45;99226.84;;;7.81
40199;BMP280;25906;43.536;26.068;2023-03-01T13:57:34;99222.94;;;7.89
40199;BMP280;25906;43.536;26.068;2023-03-01T14:03:19;99220.84;;;8.02
40199;BMP280;25906;43.536;26.068;2023-03-01T14:09:12;99216.59;;;7.79
40199;BMP280;25906;43.536;26.068;2023-03-01T14:15:02;99217.41;;;8.02
40199;BMP280;25906;43.536;26.068;2023-03-01T14:20:44;99205.66;;;7.77
40199;BMP280;25906;43.536;26.068;2023-03-01T14:23:38;99220.81;;;7.60
40199;BMP280;25906;43.536;26.068;2023-03-01T14:26:25;99212.03;;;8.02
40199;BMP280;25906;43.536;26.068;2023-03-01T14:29:37;99208.84;;;8.26
40199;BMP280;25906;43.536;26.068;2023-03-01T14:32:27;99209.59;;;8.34
40199;BMP280;25906;43.536;26.068;2023-03-01T14:35:21;99206.91;;;8.48
40199;BMP280;25906;43.536;26.068;2023-03-01T14:38:20;99211.75;;;8.43
40199;BMP280;25906;43.536;26.068;2023-03-01T14:43:57;99219.88;;;8.43
40199;BMP280;25906;43.536;26.068;2023-03-01T14:46:46;99208.00;;;8.38
40199;BMP280;25906;43.536;26.068;2023-03-01T14:49:32;99204.34;;;8.36
40199;BMP280;25906;43.536;26.068;2023-03-01T14:52:21;99210.88;;;8.62
40199;BMP280;25906;43.536;26.068;2023-03-01T14:55:15;99218.47;;;8.86
40199;BMP280;25906;43.536;26.068;2023-03-01T14:58:04;99214.84;;;8.84
40199;BMP280;25906;43.536;26.068;2023-03-01T15:00:52;99210.72;;;8.83
40199;BMP280;25906;43.536;26.068;2023-03-01T15:03:42;99206.56;;;8.97
40199;BMP280;25906;43.536;26.068;2023-03-01T15:06:29;99205.31;;;8.75
40199;BMP280;25906;43.536;26.068;2023-03-01T15:09:15;99203.00;;;8.72
40199;BMP280;25906;43.536;26.068;2023-03-01T15:12:41;99201.00;;;8.65
40199;BMP280;25906;43.536;26.068;2023-03-01T15:15:46;99203.34;;;8.61
40199;BMP280;25906;43.536;26.068;2023-03-01T15:18:32;99209.31;;;8.67
40199;BMP280;25906;43.536;26.068;2023-03-01T15:21:27;99202.78;;;8.55
40199;BMP280;25906;43.536;26.068;2023-03-01T15:27:17;99199.56;;;8.49
40199;BMP280;25906;43.536;26.068;2023-03-01T15:30:04;99204.22;;;8.41
40199;BMP280;25906;43.536;26.068;2023-03-01T15:33:00;99204.41;;;8.58
40199;BMP280;25906;43.536;26.068;2023-03-01T15:39:38;99208.50;;;8.29
40199;BMP280;25906;43.536;26.068;2023-03-01T15:48:04;99211.59;;;8.41
40199;BMP280;25906;43.536;26.068;2023-03-01T15:50:58;99210.34;;;8.49
40199;BMP280;25906;43.536;26.068;2023-03-01T15:53:48;99209.81;;;8.43
40199;BMP280;25906;43.536;26.068;2023-03-01T15:56:34;99205.81;;;8.37
40199;BMP280;25906;43.536;26.068;2023-03-01T15:59:20;99220.03;;;8.45
40199;BMP280;25906;43.536;26.068;2023-03-01T16:02:13;99213.88;;;8.29
40199;BMP280;25906;43.536;26.068;2023-03-01T16:04:59;99215.28;;;8.08
40199;BMP280;25906;43.536;26.068;2023-03-01T16:07:44;99224.91;;;8.46
40199;BMP280;25906;43.536;26.068;2023-03-01T16:10:30;99226.28;;;8.25
40199;BMP280;25906;43.536;26.068;2023-03-01T16:13:16;99221.31;;;7.86
40199;BMP280;25906;43.536;26.068;2023-03-01T16:16:02;99223.34;;;8.00
40199;BMP280;25906;43.536;26.068;2023-03-01T16:18:48;99238.28;;;8.01
40199;BMP280;25906;43.536;26.068;2023-03-01T16:21:33;99231.63;;;7.95
40199;BMP280;25906;43.536;26.068;2023-03-01T16:24:19;99233.19;;;7.91
40199;BMP280;25906;43.536;26.068;2023-03-01T16:27:04;99237.44;;;7.79
40199;BMP280;25906;43.536;26.068;2023-03-01T16:29:49;99245.38;;;7.84
40199;BMP280;25906;43.536;26.068;2023-03-01T16:32:39;99245.56;;;7.86
40199;BMP280;25906;43.536;26.068;2023-03-01T16:35:25;99244.41;;;7.67
40199;BMP280;25906;43.536;26.068;2023-03-01T16:38:10;99255.53;;;7.71
40199;BMP280;25906;43.536;26.068;2023-03-01T16:40:55;99253.19;;;7.95
40199;BMP280;25906;43.536;26.068;2023-03-01T16:43:41;99258.00;;;7.97
40199;BMP280;25906;43.536;26.068;2023-03-01T16:46:28;99262.09;;;7.90
40199;BMP280;25906;43.536;26.068;2023-03-01T16:49:14;99249.38;;;7.91
40199;BMP280;25906;43.536;26.068;2023-03-01T16:51:59;99265.44;;;7.76
40199;BMP280;25906;43.536;26.068;2023-03-01T16:54:44;99266.44;;;7.86
40199;BMP280;25906;43.536;26.068;2023-03-01T16:57:30;99264.84;;;7.70
40199;BMP280;25906;43.536;26.068;2023-03-01T17:00:15;99266.09;;;7.61
40199;BMP280;25906;43.536;26.068;2023-03-01T17:03:03;99263.06;;;7.65
40199;BMP280;25906;43.536;26.068;2023-03-01T17:05:49;99262.31;;;7.57
40199;BMP280;25906;43.536;26.068;2023-03-01T17:08:35;99268.38;;;7.85
40199;BMP280;25906;43.536;26.068;2023-03-01T17:11:22;99267.25;;;7.45
40199;BMP280;25906;43.536;26.068;2023-03-01T17:14:07;99271.41;;;7.54
40199;BMP280;25906;43.536;26.068;2023-03-01T17:16:53;99276.25;;;7.28
40199;BMP280;25906;43.536;26.068;2023-03-01T17:19:39;99265.22;;;7.39
40199;BMP280;25906;43.536;26.068;2023-03-01T17:22:26;99260.28;;;7.50
40199;BMP280;25906;43.536;26.068;2023-03-01T17:25:12;99255.75;;;7.45
40199;BMP280;25906;43.536;26.068;2023-03-01T17:27:57;99251.28;;;7.47
40199;BMP280;25906;43.536;26.068;2023-03-01T17:30:44;99250.69;;;7.34
40199;BMP280;25906;43.536;26.068;2023-03-01T17:33:29;99245.50;;;7.71
40199;BMP280;25906;43.536;26.068;2023-03-01T17:36:15;99242.63;;;7.69
40199;BMP280;25906;43.536;26.068;2023-03-01T17:39:00;99231.81;;;7.34
40199;BMP280;25906;43.536;26.068;2023-03-01T17:41:46;99244.66;;;7.48
40199;BMP280;25906;43.536;26.068;2023-03-01T17:44:32;99235.88;;;7.55
40199;BMP280;25906;43.536;26.068;2023-03-01T17:47:20;99239.34;;;7.63
40199;BMP280;25906;43.536;26.068;2023-03-01T17:50:06;99230.81;;;7.80
40199;BMP280;25906;43.536;26.068;2023-03-01T17:52:52;99237.50;;;7.94
40199;BMP280;25906;43.536;26.068;2023-03-01T17:55:39;99245.84;;;7.68
40199;BMP280;25906;43.536;26.068;2023-03-01T17:58:25;99239.38;;;8.06
40199;BMP280;25906;43.536;26.068;2023-03-01T18:01:17;99239.50;;;7.93
40199;BMP280;25906;43.536;26.068;2023-03-01T18:04:02;99244.63;;;7.76